Time;durP1;ratioP1;P1;durP2;ratioP2;P2;SDS_P1;SDS_P2;PMS_P1;PMS_P2;Temp;Humidity;BMP_temperature;BMP_pressure;BME280_temperature;BME280_humidity;BME280_pressure;Samples;Min_cycle;Max_cycle;Signal;HPM_P1;HPM_P2
2022/04/10 00:00:36;;;;;;;1.33;1.15;;;;;;;18.47;36.33;101677.63;5013235;28;20030;-75
2022/04/10 00:03:01;;;;;;;1.10;1.00;;;;;;;18.46;36.47;101673.25;5013838;28;20076;-76
2022/04/10 00:05:27;;;;;;;1.15;1.05;;;;;;;18.45;36.61;101672.41;5013601;28;20080;-75
2022/04/10 00:07:52;;;;;;;1.13;1.05;;;;;;;18.44;36.52;101669.91;5013391;28;20034;-76
2022/04/10 00:10:17;;;;;;;0.95;0.93;;;;;;;18.44;36.46;101676.25;5013565;28;20109;-76
2022/04/10 00:12:43;;;;;;;0.93;0.93;;;;;;;18.44;36.43;101669.91;5013607;28;20030;-75
2022/04/10 00:15:08;;;;;;;1.20;1.10;;;;;;;18.43;36.41;101674.56;4996043;28;20340;-75
2022/04/10 00:17:34;;;;;;;1.00;0.90;;;;;;;18.43;36.54;101674.56;4995877;28;20126;-75
2022/04/10 00:19:59;;;;;;;0.93;0.90;;;;;;;18.42;36.62;101667.41;4995825;28;20034;-75
2022/04/10 00:22:24;;;;;;;1.23;1.10;;;;;;;18.43;36.42;101668.25;4979252;28;20038;-76
2022/04/10 00:24:50;;;;;;;1.30;0.90;;;;;;;18.41;36.49;101666.59;5013304;28;20034;-75
2022/04/10 00:27:16;;;;;;;1.38;1.20;;;;;;;18.41;36.67;101666.59;5013182;28;20030;-76
2022/04/10 00:29:42;;;;;;;1.20;1.10;;;;;;;18.41;36.71;101666.59;5012448;28;20535;-76
2022/04/10 00:32:08;;;;;;;1.33;1.20;;;;;;;18.41;36.30;101671.25;5012898;28;20034;-76
2022/04/10 00:34:34;;;;;;;1.10;1.00;;;;;;;18.41;36.35;101674.00;5013536;28;20032;-76
2022/04/10 00:37:00;;;;;;;1.38;1.27;;;;;;;18.40;36.55;101673.16;5028093;28;20030;-76
2022/04/10 00:39:26;;;;;;;1.25;1.15;;;;;;;18.40;36.60;101662.16;5013069;28;20029;-76
2022/04/10 00:41:51;;;;;;;1.13;1.00;;;;;;;18.40;36.57;101658.59;5012804;28;20374;-76
2022/04/10 00:44:17;;;;;;;0.98;0.90;;;;;;;18.39;36.61;101657.75;5013017;28;20034;-76
2022/04/10 00:46:42;;;;;;;1.77;1.00;;;;;;;18.39;36.41;101654.16;5012984;28;20078;-75
2022/04/10 00:49:08;;;;;;;1.25;1.13;;;;;;;18.39;36.61;101656.91;5012912;28;20058;-76
2022/04/10 00:52:07;;;;;;;0.80;0.80;;;;;;;18.39;36.51;101659.66;5012964;28;20104;-76
2022/04/10 00:54:26;;;;;;;1.00;0.90;;;;;;;18.39;36.55;101656.91;5010415;28;20042;-76
2022/04/10 00:56:53;;;;;;;1.30;1.20;;;;;;;18.37;36.53;101654.41;5027812;28;20037;-76
2022/04/10 00:59:18;;;;;;;1.17;1.10;;;;;;;18.38;36.54;101658.84;5012777;28;20030;-76
2022/04/10 01:01:45;;;;;;;1.30;1.20;;;;;;;18.38;36.50;101656.09;5012517;28;20026;-75
2022/04/10 01:04:13;;;;;;;1.10;1.10;;;;;;;18.37;36.70;101654.41;5013233;28;20038;-75
2022/04/10 01:06:38;;;;;;;1.23;1.13;;;;;;;18.37;36.62;101653.59;5012694;28;20454;-76
2022/04/10 01:09:04;;;;;;;1.25;1.15;;;;;;;18.36;36.54;101658.22;5012325;28;20041;-76
2022/04/10 01:11:30;;;;;;;1.35;1.25;;;;;;;18.36;36.56;101658.22;5012938;28;20034;-76
2022/04/10 01:13:56;;;;;;;1.17;1.13;;;;;;;18.36;36.64;101666.47;5012755;28;20045;-76
2022/04/10 01:16:23;;;;;;;1.20;1.10;;;;;;;18.36;36.49;101657.41;5012613;28;20116;-76
2022/04/10 01:18:50;;;;;;;1.33;1.13;;;;;;;18.36;36.54;101652.75;5012424;28;20041;-76
2022/04/10 01:21:23;;;;;;;1.20;1.10;;;;;;;18.36;36.65;101654.66;5012647;28;20068;-76
2022/04/10 01:23:50;;;;;;;1.08;1.00;;;;;;;18.35;36.56;101656.59;5012740;28;20061;-75
2022/04/10 01:26:15;;;;;;;1.40;1.30;;;;;;;18.35;36.66;101661.22;4994971;28;20048;-75
2022/04/10 01:29:02;;;;;;;1.20;1.10;;;;;;;18.37;36.56;101661.84;5012267;28;20481;-75
2022/04/10 01:31:29;;;;;;;1.20;1.10;;;;;;;18.34;36.53;101660.41;5012268;28;20386;-76
2022/04/10 01:33:58;;;;;;;1.60;1.17;;;;;;;18.35;36.56;101661.22;5012296;28;20385;-76
2022/04/10 01:36:25;;;;;;;1.05;1.05;;;;;;;18.33;36.74;101661.47;5012239;28;20483;-76
2022/04/10 01:38:53;;;;;;;1.38;1.15;;;;;;;18.33;36.63;101661.47;4994676;28;20057;-76
2022/04/10 01:41:19;;;;;;;1.10;1.10;;;;;;;18.33;36.81;101655.97;5011799;28;20470;-76
2022/04/10 01:43:49;;;;;;;1.08;1.05;;;;;;;18.34;36.77;101656.84;5012145;28;20166;-77
2022/04/10 01:46:15;;;;;;;0.95;0.95;;;;;;;18.33;36.66;101663.41;5012005;28;20063;-77
2022/04/10 01:48:41;;;;;;;1.20;1.10;;;;;;;18.33;36.61;101660.66;5010622;28;20058;-75
2022/04/10 01:51:07;;;;;;;1.83;1.30;;;;;;;18.33;36.90;101663.41;5012062;28;20053;-78
2022/04/10 01:53:34;;;;;;;1.20;1.20;;;;;;;18.33;36.57;101666.16;5011939;28;20401;-77
2022/04/10 01:56:00;;;;;;;1.98;1.30;;;;;;;18.33;36.67;101666.97;5011945;28;20038;-78
2022/04/10 01:58:25;;;;;;;1.13;1.02;;;;;;;18.32;36.64;101680.97;5012066;28;20026;-77
2022/04/10 02:00:51;;;;;;;1.17;1.08;;;;;;;18.33;36.53;101679.88;4993899;28;20095;-77
2022/04/10 02:03:16;;;;;;;1.35;1.25;;;;;;;18.31;36.61;101682.88;5011568;28;20367;-76
2022/04/10 02:05:42;;;;;;;1.48;1.27;;;;;;;18.32;36.66;101683.69;5012040;28;20059;-77
2022/04/10 02:08:07;;;;;;;1.35;1.20;;;;;;;18.31;36.65;101690.31;5011715;28;20114;-77
2022/04/10 02:10:33;;;;;;;1.30;1.20;;;;;;;18.31;36.67;101682.88;4994111;28;20121;-76
2022/04/10 02:12:59;;;;;;;1.17;1.08;;;;;;;18.31;36.71;101685.63;5011704;28;20470;-77
2022/04/10 02:15:24;;;;;;;1.38;1.20;;;;;;;18.32;36.57;101679.06;5011654;28;20058;-77
2022/04/10 02:17:50;;;;;;;1.92;1.40;;;;;;;18.32;36.78;101679.06;5011544;28;20107;-77
2022/04/10 02:20:15;;;;;;;1.23;1.10;;;;;;;18.31;36.93;101680.13;5011559;28;20045;-77
2022/04/10 02:22:41;;;;;;;1.75;1.25;;;;;;;18.31;36.81;101676.56;4993999;28;20026;-77
2022/04/10 02:25:06;;;;;;;1.10;1.10;;;;;;;18.31;36.69;101669.16;5011714;28;20041;-77
2022/04/10 02:27:32;;;;;;;1.30;1.20;;;;;;;18.31;36.80;101679.31;4994086;28;20041;-77
2022/04/10 02:29:57;;;;;;;1.33;1.23;;;;;;;18.30;36.75;101675.72;5010684;28;20488;-77
2022/04/10 02:32:23;;;;;;;1.73;1.38;;;;;;;18.31;36.78;101677.38;5011158;28;20061;-77
2022/04/10 02:34:48;;;;;;;1.27;1.17;;;;;;;18.30;36.93;101683.94;5011284;28;20064;-77
2022/04/10 02:37:14;;;;;;;1.38;1.30;;;;;;;18.29;36.83;101679.56;5011661;28;20061;-77
2022/04/10 02:39:40;;;;;;;1.15;1.05;;;;;;;18.29;36.70;101681.44;5011592;28;20057;-76
2022/04/10 02:42:06;;;;;;;1.20;1.10;;;;;;;18.29;36.80;101674.06;5011351;28;20430;-76
2022/04/10 02:44:31;;;;;;;1.40;1.17;;;;;;;18.29;36.87;101675.97;5011258;28;20030;-76
2022/04/10 02:46:56;;;;;;;1.42;1.33;;;;;;;18.29;36.63;101685.06;5011200;28;20041;-76
2022/04/10 02:49:22;;;;;;;1.23;1.17;;;;;;;18.28;37.03;101688.88;5009728;28;20142;-76
2022/04/10 02:51:49;;;;;;;1.20;1.05;;;;;;;18.30;36.66;101702.34;5011120;28;20458;-76
2022/04/10 02:54:16;;;;;;;1.65;1.33;;;;;;;18.28;36.89;101697.13;5011165;28;20030;-76
2022/04/10 02:56:41;;;;;;;1.27;1.17;;;;;;;18.27;36.94;101698.19;4993478;28;20486;-76
2022/04/10 02:59:08;;;;;;;1.33;1.20;;;;;;;18.28;36.95;101699.00;5010502;28;20041;-76
2022/04/10 03:01:34;;;;;;;1.20;1.10;;;;;;;18.28;36.70;101710.84;5011032;28;20026;-76
2022/04/10 03:03:59;;;;;;;1.23;1.13;;;;;;;18.28;36.94;101701.75;5010855;28;20037;-76
2022/04/10 03:06:24;;;;;;;1.30;1.20;;;;;;;18.27;36.81;101689.13;5010962;28;20454;-75
2022/04/10 03:08:50;;;;;;;1.65;1.13;;;;;;;18.27;36.89;101703.69;5010898;28;20030;-76
2022/04/10 03:11:16;;;;;;;1.20;1.10;;;;;;;18.26;36.87;101696.50;5011132;28;20056;-76
2022/04/10 03:13:41;;;;;;;1.30;1.20;;;;;;;18.28;36.82;101699.84;5010638;28;20460;-76
2022/04/10 03:16:07;;;;;;;1.88;1.50;;;;;;;18.27;36.84;101706.41;5010582;28;20462;-76
2022/04/10 03:18:32;;;;;;;2.03;1.33;;;;;;;18.26;36.86;101699.25;5010886;28;20042;-76
2022/04/10 03:20:58;;;;;;;1.13;1.08;;;;;;;18.26;36.97;101704.75;5010816;28;20084;-77
2022/04/10 03:23:23;;;;;;;1.52;1.40;;;;;;;18.26;36.98;101704.75;5010751;28;20030;-77
2022/04/10 03:25:49;;;;;;;1.20;1.10;;;;;;;18.24;36.94;101696.75;4993907;28;20121;-77
2022/04/10 03:28:14;;;;;;;1.20;1.10;;;;;;;18.25;37.01;101705.84;4993061;28;20128;-76
2022/04/10 03:30:40;;;;;;;1.42;1.33;;;;;;;18.24;36.77;101713.22;5010266;28;20033;-76
2022/04/10 03:33:05;;;;;;;1.40;1.30;;;;;;;18.25;36.91;101716.84;5010341;28;20038;-76
2022/04/10 03:35:30;;;;;;;1.30;1.20;;;;;;;18.24;36.88;101715.16;5010581;28;20030;-76
2022/04/10 03:37:56;;;;;;;1.38;1.08;;;;;;;18.24;37.03;101718.72;5010716;28;20034;-76
2022/04/10 03:40:21;;;;;;;1.73;1.40;;;;;;;18.24;36.82;101715.97;5011003;28;20034;-76
2022/04/10 03:42:46;;;;;;;1.45;1.30;;;;;;;18.23;37.11;101722.56;4993129;28;20120;-76
2022/04/10 03:45:12;;;;;;;1.30;1.20;;;;;;;18.22;36.90;101715.41;5010607;28;20063;-76
2022/04/10 03:47:38;;;;;;;1.52;1.38;;;;;;;18.23;36.99;101722.56;5010386;28;20045;-76
2022/04/10 03:50:04;;;;;;;1.27;1.17;;;;;;;18.24;36.79;101728.88;5010504;28;20082;-76
2022/04/10 03:52:30;;;;;;;1.33;1.23;;;;;;;18.22;37.03;101726.38;5010667;28;20052;-75
2022/04/10 03:54:56;;;;;;;1.40;1.20;;;;;;;18.21;36.79;101721.97;5010012;28;20466;-75
2022/04/10 03:57:21;;;;;;;1.50;1.40;;;;;;;18.22;36.99;101728.31;4992942;28;20030;-77
2022/04/10 03:59:46;;;;;;;1.10;1.10;;;;;;;18.22;37.11;101729.13;5009915;28;20386;-78
2022/04/10 04:02:16;;;;;;;1.30;1.20;;;;;;;18.20;37.01;101725.81;5010361;28;20065;-75
2022/04/10 04:04:42;;;;;;;1.30;1.20;;;;;;;18.21;37.05;101721.97;5010709;28;20061;-74
2022/04/10 04:07:07;;;;;;;1.70;1.30;;;;;;;18.21;37.00;101721.16;5010284;28;20055;-74
2022/04/10 04:09:32;;;;;;;1.35;1.23;;;;;;;18.21;37.07;101726.63;5009837;28;20444;-74
2022/04/10 04:11:58;;;;;;;1.40;1.30;;;;;;;18.21;36.85;101729.38;4994400;28;20091;-75
2022/04/10 04:14:23;;;;;;;1.20;1.05;;;;;;;18.20;37.18;101734.06;5013516;28;20465;-75
2022/04/10 04:16:48;;;;;;;1.55;1.45;;;;;;;18.19;36.98;101740.63;5013770;28;20065;-75
2022/04/10 04:19:14;;;;;;;1.40;1.30;;;;;;;18.19;36.92;101735.13;5013655;28;20042;-75
2022/04/10 04:21:39;;;;;;;1.60;1.25;;;;;;;18.18;37.07;101733.44;5013437;28;20068;-75
2022/04/10 04:24:05;;;;;;;1.13;1.13;;;;;;;18.20;37.00;101735.94;5013233;28;20087;-75
2022/04/10 04:26:30;;;;;;;1.30;1.20;;;;;;;18.18;37.05;101727.97;4979716;28;20026;-74
2022/04/10 04:28:55;;;;;;;1.13;1.02;;;;;;;18.19;37.11;101735.13;4995716;28;20092;-74
2022/04/10 04:31:21;;;;;;;1.00;1.00;;;;;;;18.18;37.01;101733.44;5013122;28;20033;-74
2022/04/10 04:33:46;;;;;;;1.40;1.30;;;;;;;18.18;37.14;101736.19;5013143;28;20034;-74
2022/04/10 04:36:11;;;;;;;1.33;1.23;;;;;;;18.18;37.01;101744.44;4996308;28;20037;-74
2022/04/10 04:38:37;;;;;;;1.33;1.10;;;;;;;18.18;37.11;101744.44;5012827;28;20117;-74
2022/04/10 04:41:02;;;;;;;1.45;1.30;;;;;;;18.18;37.10;101741.69;4995630;28;20034;-74
2022/04/10 04:43:28;;;;;;;1.15;1.10;;;;;;;18.18;37.11;101735.38;5013078;28;20029;-76
2022/04/10 04:45:53;;;;;;;1.20;1.10;;;;;;;18.17;37.00;101736.44;4995886;28;20037;-74
2022/04/10 04:48:18;;;;;;;1.65;1.23;;;;;;;18.17;37.09;101742.78;5012786;28;20057;-75
2022/04/10 04:50:44;;;;;;;1.08;1.08;;;;;;;18.17;37.04;101742.78;5028393;28;20060;-75
2022/04/10 04:53:09;;;;;;;1.40;1.30;;;;;;;18.16;36.98;101746.59;5012894;28;20026;-74
2022/04/10 04:55:35;;;;;;;2.28;1.40;;;;;;;18.17;37.04;101745.53;5012565;28;20113;-74
2022/04/10 04:58:00;;;;;;;1.15;1.05;;;;;;;18.17;37.17;101742.78;4995353;28;20104;-74
2022/04/10 05:00:26;;;;;;;1.20;1.10;;;;;;;18.16;37.13;101749.34;5012375;28;20062;-74
2022/04/10 05:02:51;;;;;;;1.27;1.17;;;;;;;18.17;37.19;101741.94;5012768;28;20118;-74
2022/04/10 05:05:17;;;;;;;1.00;1.00;;;;;;;18.16;37.18;101754.84;5012878;28;20117;-74
2022/04/10 05:07:42;;;;;;;1.02;1.02;;;;;;;18.17;37.04;101755.66;5012667;28;20037;-75
2022/04/10 05:10:08;;;;;;;1.27;1.10;;;;;;;18.17;37.19;101756.53;4995175;28;20041;-76
2022/04/10 05:12:34;;;;;;;1.15;0.93;;;;;;;18.17;37.21;101764.75;5012676;28;20367;-76
2022/04/10 05:15:00;;;;;;;1.08;0.98;;;;;;;18.18;37.17;101765.59;5012771;28;20034;-74
2022/04/10 05:17:26;;;;;;;1.10;1.10;;;;;;;18.17;37.04;101762.00;5012202;28;20030;-74
2022/04/10 05:19:52;;;;;;;1.30;1.20;;;;;;;18.19;37.17;101778.25;5012445;28;20482;-73
2022/04/10 05:22:18;;;;;;;1.40;1.30;;;;;;;18.18;37.13;101780.13;5012382;28;20087;-75
2022/04/10 05:24:43;;;;;;;1.30;1.20;;;;;;;18.19;37.26;101781.00;4994821;28;20034;-75
2022/04/10 05:27:10;;;;;;;1.23;1.20;;;;;;;18.19;36.94;101772.75;4978589;28;20038;-75
2022/04/10 05:29:36;;;;;;;1.50;1.40;;;;;;;18.18;37.15;101776.56;5011566;28;20037;-75
2022/04/10 05:32:01;;;;;;;1.00;0.98;;;;;;;18.20;37.13;101788.13;4994949;28;20435;-74
2022/04/10 05:34:27;;;;;;;1.30;1.20;;;;;;;18.19;37.19;101787.31;5012438;28;20030;-74
2022/04/10 05:36:53;;;;;;;0.90;0.90;;;;;;;18.20;37.03;101790.88;5012731;28;20041;-72
2022/04/10 05:39:18;;;;;;;1.45;1.20;;;;;;;18.18;35.92;101799.38;5012210;28;20034;-72
2022/04/10 05:41:43;;;;;;;1.70;1.60;;;;;;;17.98;32.77;101799.78;5012171;28;20359;-72
2022/04/10 05:44:09;;;;;;;3.33;2.30;;;;;;;17.60;32.65;101797.50;5012131;28;20026;-72
2022/04/10 05:46:38;;;;;;;2.20;2.10;;;;;;;17.20;32.76;101799.06;5027985;28;20112;-72
2022/04/10 05:49:05;;;;;;;2.83;2.30;;;;;;;16.90;33.03;101805.44;5011748;28;20114;-71
2022/04/10 05:51:30;;;;;;;2.92;2.20;;;;;;;16.64;33.06;101806.66;5012058;28;20143;-70
2022/04/10 05:53:56;;;;;;;3.28;2.13;;;;;;;16.41;34.01;101810.13;5012192;28;20490;-69
2022/04/10 05:56:21;;;;;;;3.72;2.33;;;;;;;16.33;34.44;101808.56;5010543;28;20034;-68
2022/04/10 05:58:46;;;;;;;2.30;2.10;;;;;;;16.42;35.14;101806.34;5027181;28;20120;-68
2022/04/10 06:01:12;;;;;;;2.22;2.03;;;;;;;16.55;35.05;101813.50;5011693;28;20030;-71
2022/04/10 06:03:38;;;;;;;1.90;1.80;;;;;;;16.71;34.87;101823.84;4994276;28;20459;-68
2022/04/10 06:06:04;;;;;;;2.25;1.98;;;;;;;16.84;34.80;101823.66;5012113;28;20042;-68
2022/04/10 06:08:29;;;;;;;1.90;1.80;;;;;;;16.97;35.02;101830.84;4993803;28;20045;-66
2022/04/10 06:10:55;;;;;;;2.45;1.80;;;;;;;17.10;35.00;101835.28;4993870;28;20030;-67
2022/04/10 06:13:21;;;;;;;2.03;1.80;;;;;;;17.20;35.23;101826.50;5010842;28;20058;-67
2022/04/10 06:15:47;;;;;;;2.63;1.90;;;;;;;17.28;35.39;101834.38;5011728;28;20461;-67
2022/04/10 06:18:13;;;;;;;2.20;1.92;;;;;;;17.34;35.36;101838.06;4994223;28;20034;-65
2022/04/10 06:20:38;;;;;;;2.28;1.90;;;;;;;17.38;35.45;101844.75;5011250;28;20389;-76
2022/04/10 06:23:04;;;;;;;1.70;1.60;;;;;;;17.39;35.50;101843.69;5011373;28;20034;-69
2022/04/10 06:25:29;;;;;;;2.03;1.80;;;;;;;17.41;35.17;101851.69;5011567;28;20436;-69
2022/04/10 06:27:56;;;;;;;2.00;1.70;;;;;;;17.46;35.59;101857.28;4993680;28;20064;-71
2022/04/10 06:30:22;;;;;;;1.83;1.73;;;;;;;17.50;35.93;101855.75;5011109;28;20038;-71
2022/04/10 06:32:47;;;;;;;2.67;1.80;;;;;;;17.58;35.94;101860.03;5011533;28;20030;-70
2022/04/10 06:35:14;;;;;;;2.22;1.80;;;;;;;17.63;35.96;101862.91;5010866;28;20059;-71
2022/04/10 06:37:39;;;;;;;2.13;1.60;;;;;;;17.68;36.09;101868.53;5010931;28;20034;-71
2022/04/10 06:40:05;;;;;;;2.22;1.60;;;;;;;17.74;36.28;101869.47;5011165;28;20033;-71
2022/04/10 06:42:31;;;;;;;1.75;1.60;;;;;;;17.78;36.16;101866.00;5010250;28;20022;-71
2022/04/10 06:44:56;;;;;;;2.90;1.67;;;;;;;17.81;35.95;101868.28;4993819;28;20466;-70
2022/04/10 06:47:22;;;;;;;1.92;1.70;;;;;;;17.87;36.23;101871.97;5010883;28;20030;-69
2022/04/10 06:49:47;;;;;;;1.38;1.27;;;;;;;17.90;36.15;101877.03;4993135;28;20050;-70
2022/04/10 06:52:13;;;;;;;1.77;1.58;;;;;;;17.92;36.40;101880.34;5010910;28;20052;-75
2022/04/10 06:54:39;;;;;;;2.50;1.85;;;;;;;17.83;35.11;101873.53;5010007;28;20124;-70
2022/04/10 06:57:04;;;;;;;2.05;1.70;;;;;;;17.76;35.40;101878.28;4993573;28;20416;-70
2022/04/10 06:59:29;;;;;;;2.00;1.60;;;;;;;17.75;35.71;101880.22;5010298;28;20117;-70
2022/04/10 07:01:55;;;;;;;2.75;1.77;;;;;;;17.77;35.60;101880.81;5010772;28;20117;-70
2022/04/10 07:04:20;;;;;;;2.22;1.80;;;;;;;17.82;35.70;101878.19;5011082;28;20038;-71
2022/04/10 07:06:46;;;;;;;1.70;1.60;;;;;;;17.85;35.99;101885.94;4993718;28;20042;-71
2022/04/10 07:09:15;;;;;;;3.20;1.92;;;;;;;17.91;35.87;101894.31;4993594;28;20117;-70
2022/04/10 07:11:41;;;;;;;1.70;1.60;;;;;;;17.92;36.13;101888.59;4977297;28;20065;-70
2022/04/10 07:14:06;;;;;;;1.98;1.70;;;;;;;17.96;36.04;101889.78;4993405;28;20045;-71
2022/04/10 07:16:32;;;;;;;1.88;1.65;;;;;;;17.99;35.96;101889.31;5010671;28;20112;-71
2022/04/10 07:18:57;;;;;;;3.58;1.85;;;;;;;18.01;36.35;101889.91;4993084;28;20534;-62
2022/04/10 07:24:07;;;;;;;1.95;1.77;;;;;;;18.03;38.63;101906.16;5011200;28;20052;-76
2022/04/10 07:26:32;;;;;;;3.20;1.65;;;;;;;18.03;37.48;101903.41;4993028;28;20034;-72
2022/04/10 07:28:58;;;;;;;2.70;1.80;;;;;;;18.01;37.19;101897.28;4976796;28;20068;-77
2022/04/10 07:31:23;;;;;;;2.45;1.60;;;;;;;18.00;37.15;101898.41;4992845;28;20030;-74
2022/04/10 07:33:49;;;;;;;2.38;1.50;;;;;;;18.01;37.13;101902.78;5010727;28;20038;-75
2022/04/10 07:36:14;;;;;;;3.28;1.52;;;;;;;18.01;37.13;101905.53;4992948;28;20040;-75
2022/04/10 07:38:39;;;;;;;1.77;1.63;;;;;;;18.00;37.36;101907.44;5010717;28;20034;-73
2022/04/10 07:41:05;;;;;;;1.88;1.50;;;;;;;18.01;37.52;101913.78;5010631;28;20466;-72
2022/04/10 07:43:31;;;;;;;1.88;1.58;;;;;;;18.01;37.35;101911.88;5010320;28;20389;-72
2022/04/10 07:48:42;;;;;;;2.00;1.50;;;;;;;18.03;37.65;101922.63;5013580;28;20146;-73
2022/04/10 07:51:08;;;;;;;2.78;1.48;;;;;;;18.02;37.73;101921.78;5013904;28;20515;-73
2022/04/10 07:53:34;;;;;;;2.58;1.67;;;;;;;18.06;37.83;101922.13;5013905;28;20030;-74
2022/04/10 07:56:00;;;;;;;1.60;1.50;;;;;;;18.16;38.06;101938.00;5013912;28;20486;-72
2022/04/10 07:58:25;;;;;;;1.70;1.60;;;;;;;18.32;38.33;101933.69;4996954;28;20133;-72
2022/04/10 08:00:51;;;;;;;2.10;1.60;;;;;;;18.54;38.14;101945.72;5013355;28;20034;-72
2022/04/10 08:03:17;;;;;;;2.08;1.38;;;;;;;18.72;37.25;101935.63;4996299;28;20402;-75
2022/04/10 08:05:42;;;;;;;1.52;1.40;;;;;;;18.82;37.28;101941.34;5027439;28;20048;-78
2022/04/10 08:08:10;;;;;;;1.90;1.45;;;;;;;18.82;37.08;101955.06;5014517;28;20493;-72
2022/04/10 08:10:37;;;;;;;1.52;1.42;;;;;;;18.81;36.99;101949.81;5013851;28;20026;-73
2022/04/10 08:13:02;;;;;;;1.30;1.20;;;;;;;18.80;37.21;101951.75;4996326;28;20121;-74
2022/04/10 08:15:28;;;;;;;2.22;1.55;;;;;;;18.77;37.13;101955.81;4996003;28;20065;-74
2022/04/10 08:17:54;;;;;;;1.58;1.40;;;;;;;18.75;37.07;101955.22;4996037;28;20465;-74
2022/04/10 08:20:19;;;;;;;1.95;1.40;;;;;;;18.74;36.80;101952.72;5013187;28;20112;-74
2022/04/10 08:22:49;;;;;;;2.35;1.30;;;;;;;18.72;36.86;101952.13;5031858;28;20045;-73
2022/04/10 08:25:16;;;;;;;2.15;1.40;;;;;;;18.71;36.63;101958.72;5033223;28;20040;-73
2022/04/10 08:27:41;;;;;;;2.10;1.25;;;;;;;18.69;36.69;101953.47;5033006;28;20040;-74
2022/04/10 08:30:09;;;;;;;2.70;1.30;;;;;;;18.69;36.62;101952.59;5032640;28;20037;-74
2022/04/10 08:32:36;;;;;;;2.78;1.23;;;;;;;18.68;37.03;101954.53;5018195;28;20067;-73
2022/04/10 08:35:01;;;;;;;2.17;1.33;;;;;;;18.67;38.01;101954.78;4976334;28;20054;-74
2022/04/10 08:37:27;;;;;;;2.00;1.23;;;;;;;18.67;38.29;101963.03;4994215;28;20035;-75
2022/04/10 08:39:52;;;;;;;1.30;1.20;;;;;;;18.66;38.37;101964.94;5008466;28;20065;-74
2022/04/10 08:42:17;;;;;;;2.90;1.30;;;;;;;18.66;37.88;101961.34;5004174;28;20038;-73
2022/04/10 08:44:43;;;;;;;1.50;1.40;;;;;;;18.64;37.84;101969.84;4995278;28;20038;-74
2022/04/10 08:47:09;;;;;;;0.98;0.93;;;;;;;18.64;37.86;101972.56;5013347;28;20062;-74
2022/04/10 08:49:35;;;;;;;1.15;0.82;;;;;;;18.65;37.61;101976.19;5012537;28;20078;-73
2022/04/10 08:52:00;;;;;;;0.90;0.90;;;;;;;18.64;38.31;101974.50;4996612;28;20040;-73
2022/04/10 08:54:27;;;;;;;1.25;1.15;;;;;;;18.64;37.95;101974.50;5012949;28;20034;-73
2022/04/10 08:56:54;;;;;;;1.45;1.20;;;;;;;18.63;37.88;101979.19;5012207;28;20044;-72
2022/04/10 08:59:20;;;;;;;2.05;1.10;;;;;;;18.63;38.04;101984.66;5012467;28;20038;-72
2022/04/10 09:01:51;;;;;;;1.70;1.17;;;;;;;18.62;37.72;101977.50;5012908;28;20090;-72
2022/04/10 09:04:17;;;;;;;1.48;1.15;;;;;;;18.63;38.13;101978.31;5013491;28;20046;-74
2022/04/10 09:07:07;;;;;;;2.08;1.00;;;;;;;18.64;38.37;101980.00;5012679;28;20038;-75
2022/04/10 09:09:34;;;;;;;1.73;1.35;;;;;;;18.63;39.13;101989.31;5012750;28;20038;-70
2022/04/10 09:11:59;;;;;;;1.40;1.15;;;;;;;18.63;38.37;101990.16;5013011;28;20464;-72
2022/04/10 09:14:27;;;;;;;1.65;1.02;;;;;;;18.63;38.91;101992.91;5012542;28;20038;-72
2022/04/10 09:17:18;;;;;;;1.35;1.08;;;;;;;18.65;39.33;101995.44;5011382;28;20034;-81
2022/04/10 09:19:53;;;;;;;1.75;1.10;;;;;;;18.63;38.69;101992.91;5012422;28;20034;-81
2022/04/10 09:22:28;;;;;;;1.20;1.13;;;;;;;18.62;37.58;101985.75;5011413;28;20409;-81
2022/04/10 09:25:07;;;;;;;1.85;1.25;;;;;;;18.62;37.27;101980.25;5012581;28;20060;-81
2022/04/10 09:27:35;;;;;;;1.55;1.00;;;;;;;18.61;37.73;101985.97;5012480;28;20026;-81
2022/04/10 09:30:01;;;;;;;1.60;0.95;;;;;;;18.61;38.50;101988.72;5010568;28;20375;-81
2022/04/10 09:32:39;;;;;;;2.45;1.15;;;;;;;18.60;38.51;101987.88;5013082;28;20057;-81
2022/04/10 09:35:05;;;;;;;1.02;0.93;;;;;;;18.60;39.34;101985.13;5012781;28;20056;-81
2022/04/10 09:37:51;;;;;;;1.00;0.90;;;;;;;18.61;38.75;101986.81;5012289;28;20030;-81
2022/04/10 09:40:30;;;;;;;2.75;1.10;;;;;;;18.60;38.67;101979.63;5012022;28;20493;-81
2022/04/10 09:42:56;;;;;;;0.90;0.90;;;;;;;18.58;38.84;101977.13;5012196;28;20113;-81
2022/04/10 09:45:33;;;;;;;2.78;1.30;;;;;;;18.59;38.64;101978.81;5012140;28;20478;-80
2022/04/10 09:48:27;;;;;;;3.45;1.50;;;;;;;18.61;38.61;101980.50;5011888;28;20125;-81
2022/04/10 09:50:56;;;;;;;2.80;1.33;;;;;;;18.58;38.64;101977.13;5011751;28;20089;-80
2022/04/10 09:53:22;;;;;;;3.58;1.85;;;;;;;18.58;38.47;101977.13;5011887;28;20054;-82
2022/04/10 09:55:53;;;;;;;2.65;1.40;;;;;;;18.59;38.57;101980.72;5012350;28;20525;-81
2022/04/10 09:58:20;;;;;;;2.60;1.42;;;;;;;18.60;38.50;101982.38;5012093;28;20044;-82
2022/04/10 10:00:46;;;;;;;2.00;1.50;;;;;;;18.59;38.64;101981.56;5012014;28;20066;-81
2022/04/10 10:03:13;;;;;;;4.53;1.80;;;;;;;18.59;38.41;101980.72;5010837;28;20080;-81
2022/04/10 10:05:39;;;;;;;4.03;1.60;;;;;;;18.60;38.46;101974.13;5011963;28;20064;-81
2022/04/10 10:08:05;;;;;;;4.75;1.77;;;;;;;18.59;38.66;101969.75;5011827;28;20033;-81
2022/04/10 10:10:32;;;;;;;3.05;1.58;;;;;;;18.61;38.47;101980.50;5010919;28;20058;-81
2022/04/10 10:13:02;;;;;;;3.88;1.58;;;;;;;18.61;38.64;101973.06;5011785;28;20502;-82
2022/04/10 10:15:28;;;;;;;2.78;1.48;;;;;;;18.61;38.29;101969.50;5010728;28;20041;-81
2022/04/10 10:17:54;;;;;;;4.05;1.80;;;;;;;18.62;38.40;101969.25;5011919;28;20355;-81
2022/04/10 10:20:21;;;;;;;3.78;1.60;;;;;;;18.63;38.37;101964.56;5011801;28;20109;-81
2022/04/10 10:22:46;;;;;;;3.88;1.50;;;;;;;18.63;38.39;101968.19;5011715;28;20134;-81
2022/04/10 10:25:17;;;;;;;4.28;1.52;;;;;;;18.64;38.56;101971.75;5011625;28;20525;-81
2022/04/10 10:28:07;;;;;;;3.95;1.80;;;;;;;18.64;38.26;101969.00;5012075;28;20030;-81
2022/04/10 10:30:44;;;;;;;4.25;1.70;;;;;;;18.65;38.36;101971.50;5011457;28;20079;-81
2022/04/10 10:33:18;;;;;;;4.45;1.45;;;;;;;18.66;38.05;101972.34;5010286;28;20124;-81
2022/04/10 10:35:56;;;;;;;3.67;1.50;;;;;;;18.66;38.04;101962.19;5011566;28;20030;-81
2022/04/10 10:38:32;;;;;;;3.78;1.52;;;;;;;18.65;37.96;101963.25;5011289;28;20498;-81
2022/04/10 10:41:12;;;;;;;3.40;1.63;;;;;;;18.66;38.07;101959.44;5011205;28;20026;-82
2022/04/10 10:43:38;;;;;;;4.47;1.58;;;;;;;18.66;37.90;101953.94;5011363;28;20033;-81
2022/04/10 10:46:20;;;;;;;2.50;1.42;;;;;;;18.68;37.57;101964.69;5011014;28;20058;-81
2022/04/10 10:48:46;;;;;;;4.03;1.52;;;;;;;18.67;37.23;101965.78;5010932;28;20478;-81
2022/04/10 10:51:11;;;;;;;2.10;1.10;;;;;;;18.67;36.74;101963.03;5011477;28;20136;-81
2022/04/10 10:53:43;;;;;;;2.85;1.30;;;;;;;18.68;37.43;101968.28;5011378;28;20026;-81
2022/04/10 10:56:19;;;;;;;2.03;1.30;;;;;;;18.69;37.44;101966.34;5011187;28;20022;-81
2022/04/10 10:58:47;;;;;;;1.88;1.13;;;;;;;18.69;37.23;101960.84;5010970;28;20444;-80
2022/04/10 11:01:21;;;;;;;1.83;1.20;;;;;;;18.69;37.14;101961.72;5010428;28;20026;-81
2022/04/10 11:04:03;;;;;;;2.85;1.15;;;;;;;18.72;37.29;101960.38;5010786;28;20064;-81
2022/04/10 11:06:42;;;;;;;3.80;1.45;;;;;;;18.71;37.03;101956.78;5010945;28;20071;-81
2022/04/10 11:09:29;;;;;;;2.65;1.30;;;;;;;18.73;36.92;101951.03;5011612;28;20033;-81
2022/04/10 11:11:57;;;;;;;2.72;1.20;;;;;;;18.72;36.94;101958.47;5011016;28;20072;-81
2022/04/10 11:14:39;;;;;;;1.05;0.75;;;;;;;18.73;37.09;101954.66;5010980;28;20095;-80
2022/04/10 11:17:21;;;;;;;2.97;1.52;;;;;;;18.74;37.31;101952.72;5010958;28;20584;-82
2022/04/10 11:19:54;;;;;;;2.33;1.42;;;;;;;18.77;37.57;101958.56;5010963;28;20105;-84
2022/04/10 11:22:34;;;;;;;4.07;1.40;;;;;;;18.83;37.67;101959.50;5014670;28;20030;-84
2022/04/10 11:25:06;;;;;;;5.30;1.60;;;;;;;18.93;37.88;101964.41;5014944;28;20030;-84
2022/04/10 11:27:57;;;;;;;2.83;1.40;;;;;;;19.09;37.81;101958.13;5013605;28;20102;-82
2022/04/10 11:30:29;;;;;;;4.05;1.70;;;;;;;19.27;37.65;101945.25;5014011;28;20037;-84